createdAt,value
2022-09-09T00:01:01.323Z,19.21
2022-09-09T00:02:12.941Z,19.21
2022-09-09T00:03:18.927Z,19.22
2022-09-09T00:04:29.295Z,19.21
2022-09-09T00:05:40.938Z,19.20
2022-09-09T00:06:53.059Z,19.20
2022-09-09T00:07:59.827Z,19.17
2022-09-09T00:09:06.749Z,19.16
2022-09-09T00:10:17.547Z,19.15
2022-09-09T00:11:30.809Z,19.13
2022-09-09T00:12:43.081Z,19.14
2022-09-09T00:13:50.096Z,19.14
2022-09-09T00:14:56.108Z,19.14
2022-09-09T00:16:03.912Z,19.11
2022-09-09T00:17:12.705Z,19.11
2022-09-09T00:18:23.930Z,19.10
2022-09-09T00:19:33.446Z,19.07
2022-09-09T00:20:42.284Z,19.05
2022-09-09T00:21:51.592Z,19.03
2022-09-09T00:23:01.694Z,19.02
2022-09-09T00:24:11.695Z,19.00
2022-09-09T00:25:17.951Z,18.99
2022-09-09T00:26:25.872Z,18.96
2022-09-09T00:27:34.310Z,18.96
2022-09-09T00:28:42.653Z,18.95
2022-09-09T00:29:49.296Z,18.95
2022-09-09T00:30:50.999Z,18.93
2022-09-09T00:32:00.563Z,18.93
2022-09-09T00:33:14.021Z,18.94
2022-09-09T00:34:22.410Z,18.97
2022-09-09T00:35:27.531Z,18.97
2022-09-09T00:36:30.277Z,18.97
2022-09-09T00:37:35.972Z,18.98
2022-09-09T00:38:45.020Z,19.00
2022-09-09T00:39:48.751Z,19.02
2022-09-09T00:40:54.439Z,19.04
2022-09-09T00:42:14.707Z,19.07
2022-09-09T00:43:32.257Z,19.09
2022-09-09T00:44:36.344Z,19.10
2022-09-09T00:46:05.165Z,19.12
2022-09-09T00:47:26.868Z,19.13
2022-09-09T00:48:37.337Z,19.13
2022-09-09T00:49:50.698Z,19.11
2022-09-09T00:50:57.719Z,19.10
2022-09-09T00:52:13.749Z,19.09
2022-09-09T00:53:34.553Z,19.07
2022-09-09T00:54:47.502Z,19.05
2022-09-09T00:55:53.421Z,19.04
2022-09-09T00:57:08.473Z,19.03
2022-09-09T00:58:10.385Z,19.04
2022-09-09T00:59:28.197Z,19.03
2022-09-09T01:00:38.513Z,19.00
2022-09-09T01:01:40.646Z,18.97
2022-09-09T01:02:54.444Z,18.96
2022-09-09T01:04:00.344Z,18.94
2022-09-09T01:05:12.094Z,18.94
2022-09-09T01:06:17.406Z,18.92
2022-09-09T01:07:21.103Z,18.89
2022-09-09T01:08:43.938Z,18.86
2022-09-09T01:09:54.523Z,18.84
2022-09-09T01:10:59.474Z,18.83
2022-09-09T01:12:10.965Z,18.83
2022-09-09T01:13:21.276Z,18.83
2022-09-09T01:14:36.986Z,18.83
2022-09-09T01:15:41.085Z,18.83
2022-09-09T01:16:44.908Z,18.81
2022-09-09T01:18:02.262Z,18.80
2022-09-09T01:19:05.977Z,18.79
2022-09-09T01:20:15.216Z,18.77
2022-09-09T01:21:28.656Z,18.76
2022-09-09T01:22:37.851Z,18.76
2022-09-09T01:23:52.623Z,18.75
2022-09-09T01:25:20.593Z,18.73
2022-09-09T01:26:31.118Z,18.71
2022-09-09T01:27:35.634Z,18.71
2022-09-09T01:28:38.468Z,18.71
2022-09-09T01:29:41.428Z,18.69
2022-09-09T01:30:43.274Z,18.68
2022-09-09T01:31:56.526Z,18.66
2022-09-09T01:33:01.282Z,18.67
2022-09-09T01:34:10.824Z,18.66
2022-09-09T01:35:19.328Z,18.67
2022-09-09T01:36:31.549Z,18.67
2022-09-09T01:37:33.111Z,18.67
2022-09-09T01:38:38.016Z,18.67
2022-09-09T01:39:43.731Z,18.68
2022-09-09T01:40:46.414Z,18.68
2022-09-09T01:41:49.394Z,18.69
2022-09-09T01:42:52.077Z,18.70
2022-09-09T01:43:55.792Z,18.71
2022-09-09T01:44:58.324Z,18.71
2022-09-09T01:46:02.176Z,18.73
2022-09-09T01:47:05.886Z,18.75
2022-09-09T01:48:07.659Z,18.77
2022-09-09T01:49:10.833Z,18.77
2022-09-09T01:50:15.967Z,18.78
2022-09-09T01:51:18.995Z,18.78
2022-09-09T01:52:20.624Z,18.79
2022-09-09T01:53:24.054Z,18.81
2022-09-09T01:54:27.944Z,18.82
2022-09-09T01:55:33.575Z,18.85
2022-09-09T01:56:45.726Z,18.86
2022-09-09T01:58:01.437Z,18.89
2022-09-09T01:59:14.136Z,18.92
2022-09-09T02:00:17.047Z,18.93
2022-09-09T02:01:29.018Z,18.95
2022-09-09T02:02:38.479Z,18.97
2022-09-09T02:03:44.968Z,18.98
2022-09-09T02:04:50.691Z,19.00
2022-09-09T02:06:00.968Z,19.00
2022-09-09T02:07:03.620Z,19.00
2022-09-09T02:08:08.408Z,18.99
2022-09-09T02:09:14.783Z,19.00
2022-09-09T02:10:20.872Z,18.99
2022-09-09T02:11:25.881Z,19.01
2022-09-09T02:12:31.314Z,19.03
2022-09-09T02:13:38.687Z,19.04
2022-09-09T02:14:43.194Z,19.05
2022-09-09T02:15:54.710Z,19.06
2022-09-09T02:17:02.712Z,19.07
2022-09-09T02:18:08.931Z,19.07
2022-09-09T02:19:14.254Z,19.08
2022-09-09T02:20:18.239Z,19.10
2022-09-09T02:21:20.398Z,19.10
2022-09-09T02:22:26.123Z,19.11
2022-09-09T02:23:29.402Z,19.12
2022-09-09T02:24:35.269Z,19.12
2022-09-09T02:25:38.116Z,19.12
2022-09-09T02:26:44.508Z,19.14
2022-09-09T02:27:51.702Z,19.15
2022-09-09T02:28:59.283Z,19.16
2022-09-09T02:30:03.617Z,19.15
2022-09-09T02:31:07.409Z,19.17
2022-09-09T02:32:13.967Z,19.18
2022-09-09T02:33:16.867Z,19.16
2022-09-09T02:34:21.245Z,19.17
2022-09-09T02:35:27.161Z,19.18
2022-09-09T02:36:34.274Z,19.19
2022-09-09T02:37:40.663Z,19.18
2022-09-09T02:38:46.725Z,19.18
2022-09-09T02:39:49.827Z,19.19
2022-09-09T02:40:51.476Z,19.18
2022-09-09T02:41:54.337Z,19.19
2022-09-09T02:42:56.280Z,19.18
2022-09-09T02:44:00.279Z,19.20
2022-09-09T02:45:01.923Z,19.19
2022-09-09T02:46:14.043Z,19.21
2022-09-09T02:47:29.486Z,19.19
2022-09-09T02:48:39.222Z,19.18
2022-09-09T02:49:52.591Z,19.19
2022-09-09T02:51:05.921Z,19.19
2022-09-09T02:52:09.726Z,19.18
2022-09-09T02:53:18.463Z,19.19
2022-09-09T02:54:27.406Z,19.19
2022-09-09T02:55:39.960Z,19.19
2022-09-09T02:56:46.969Z,19.20
2022-09-09T02:57:51.218Z,19.20
2022-09-09T02:58:52.791Z,19.20
2022-09-09T02:59:59.652Z,19.19
2022-09-09T03:01:03.867Z,19.19
2022-09-09T03:02:06.104Z,19.18
2022-09-09T03:03:10.630Z,19.17
2022-09-09T03:04:12.257Z,19.17
2022-09-09T03:05:15.014Z,19.17
2022-09-09T03:06:17.471Z,19.16
2022-09-09T03:07:20.269Z,19.15
2022-09-09T03:08:22.987Z,19.16
2022-09-09T03:09:24.754Z,19.15
2022-09-09T03:10:27.303Z,19.15
2022-09-09T03:11:29.230Z,19.13
2022-09-09T03:12:32.207Z,19.13
2022-09-09T03:13:36.651Z,19.14
2022-09-09T03:14:39.394Z,19.14
2022-09-09T03:15:42.356Z,19.14
2022-09-09T03:16:45.046Z,19.12
2022-09-09T03:17:46.636Z,19.12
2022-09-09T03:18:49.966Z,19.12
2022-09-09T03:19:53.299Z,19.11
2022-09-09T03:20:55.949Z,19.11
2022-09-09T03:21:57.647Z,19.11
2022-09-09T03:23:01.971Z,19.10
2022-09-09T03:24:04.397Z,19.09
2022-09-09T03:25:07.635Z,19.11
2022-09-09T03:26:09.230Z,19.10
2022-09-09T03:27:11.761Z,19.09
2022-09-09T03:28:13.310Z,19.10
2022-09-09T03:29:16.447Z,19.10
2022-09-09T03:30:17.996Z,19.10
2022-09-09T03:31:22.134Z,19.10
2022-09-09T03:32:24.022Z,19.11
2022-09-09T03:33:26.762Z,19.09
2022-09-09T03:34:28.339Z,19.09
2022-09-09T03:35:30.884Z,19.10
2022-09-09T03:36:34.367Z,19.10
2022-09-09T03:37:35.956Z,19.10
2022-09-09T03:38:38.602Z,19.08
2022-09-09T03:39:40.229Z,19.07
2022-09-09T03:40:51.076Z,19.07
2022-09-09T03:41:52.731Z,19.05
2022-09-09T03:42:55.274Z,19.04
2022-09-09T03:43:57.054Z,19.04
2022-09-09T03:45:00.304Z,19.03
2022-09-09T03:46:01.933Z,19.00
2022-09-09T03:47:07.177Z,18.99
2022-09-09T03:48:12.817Z,18.99
2022-09-09T03:49:14.490Z,18.98
2022-09-09T03:50:17.067Z,18.96
2022-09-09T03:51:19.270Z,18.93
2022-09-09T03:52:23.827Z,18.91
2022-09-09T03:53:25.951Z,18.89
2022-09-09T03:54:28.733Z,18.88
2022-09-09T03:55:30.297Z,18.87
2022-09-09T03:56:32.933Z,18.86
2022-09-09T03:57:35.877Z,18.83
2022-09-09T03:58:40.170Z,18.83
2022-09-09T03:59:41.760Z,18.80
2022-09-09T04:00:45.972Z,18.80
2022-09-09T04:01:48.144Z,18.80
2022-09-09T04:02:54.909Z,18.80
2022-09-09T04:03:58.959Z,18.80
2022-09-09T04:05:02.012Z,18.79
2022-09-09T04:06:05.011Z,18.78
2022-09-09T04:07:08.016Z,18.77
2022-09-09T04:08:09.584Z,18.78
2022-09-09T04:09:12.112Z,18.77
2022-09-09T04:10:14.441Z,18.78
2022-09-09T04:11:17.507Z,18.77
2022-09-09T04:12:19.097Z,18.79
2022-09-09T04:13:21.770Z,18.79
2022-09-09T04:14:23.340Z,18.79
2022-09-09T04:15:25.840Z,18.79
2022-09-09T04:16:27.632Z,18.78
2022-09-09T04:17:30.126Z,18.79
2022-09-09T04:18:35.312Z,18.79
2022-09-09T04:19:37.927Z,18.79
2022-09-09T04:20:39.838Z,18.79
2022-09-09T04:21:43.197Z,18.80
2022-09-09T04:22:44.766Z,18.80
2022-09-09T04:23:47.273Z,18.81
2022-09-09T04:24:49.028Z,18.81
2022-09-09T04:25:53.223Z,18.82
2022-09-09T04:26:55.269Z,18.82
2022-09-09T04:27:58.351Z,18.83
2022-09-09T04:28:59.894Z,18.85
2022-09-09T04:30:02.385Z,18.85
2022-09-09T04:31:08.548Z,18.86
2022-09-09T04:32:11.085Z,18.89
2022-09-09T04:33:13.599Z,18.88
2022-09-09T04:34:17.516Z,18.90
2022-09-09T04:35:19.613Z,18.91
2022-09-09T04:36:22.479Z,18.92
2022-09-09T04:37:25.742Z,18.94
2022-09-09T04:38:28.245Z,18.93
2022-09-09T04:39:29.922Z,18.94
2022-09-09T04:40:34.039Z,18.95
2022-09-09T04:41:36.816Z,18.95
2022-09-09T04:42:38.553Z,18.95
2022-09-09T04:43:41.265Z,18.96
2022-09-09T04:44:44.747Z,18.96
2022-09-09T04:45:49.706Z,18.99
2022-09-09T04:46:52.338Z,18.97
2022-09-09T04:47:54.131Z,18.98
2022-09-09T04:48:56.616Z,18.98
2022-09-09T04:49:59.932Z,18.98
2022-09-09T04:51:05.557Z,18.99
2022-09-09T04:52:07.083Z,18.99
2022-09-09T04:53:10.090Z,18.99
2022-09-09T04:54:12.592Z,19.00
2022-09-09T04:55:15.435Z,19.01
2022-09-09T04:56:18.329Z,19.02
2022-09-09T04:57:20.901Z,19.01
2022-09-09T04:58:23.449Z,19.02
2022-09-09T04:59:26.250Z,19.02
2022-09-09T05:00:27.874Z,19.01
2022-09-09T05:01:30.437Z,19.02
2022-09-09T05:02:33.181Z,19.03
2022-09-09T05:03:35.793Z,19.03
2022-09-09T05:04:37.359Z,19.04
2022-09-09T05:05:41.256Z,19.04
2022-09-09T05:06:43.204Z,19.04
2022-09-09T05:07:45.728Z,19.05
2022-09-09T05:08:47.631Z,19.05
2022-09-09T05:09:50.304Z,19.06
2022-09-09T05:10:51.834Z,19.07
2022-09-09T05:11:54.341Z,19.07
2022-09-09T05:12:56.078Z,19.07
2022-09-09T05:13:58.746Z,19.07
2022-09-09T05:15:00.403Z,19.09
2022-09-09T05:16:03.424Z,19.09
2022-09-09T05:17:05.053Z,19.08
2022-09-09T05:18:08.118Z,19.09
2022-09-09T05:19:09.936Z,19.10
2022-09-09T05:20:17.176Z,19.09
2022-09-09T05:21:23.884Z,19.11
2022-09-09T05:22:25.458Z,19.10
2022-09-09T05:23:28.566Z,19.11
2022-09-09T05:24:33.979Z,19.12
2022-09-09T05:25:36.532Z,19.12
2022-09-09T05:26:38.249Z,19.11
2022-09-09T05:27:40.812Z,19.13
2022-09-09T05:28:42.475Z,19.13
2022-09-09T05:29:45.601Z,19.14
2022-09-09T05:30:47.144Z,19.14
2022-09-09T05:31:49.904Z,19.13
2022-09-09T05:32:51.557Z,19.14
2022-09-09T05:33:54.080Z,19.13
2022-09-09T05:34:56.626Z,19.13
2022-09-09T05:35:59.389Z,19.13
2022-09-09T05:37:04.141Z,19.13
2022-09-09T05:38:08.106Z,19.14
2022-09-09T05:39:12.906Z,19.15
2022-09-09T05:40:14.807Z,19.14
2022-09-09T05:41:18.500Z,19.15
2022-09-09T05:42:20.082Z,19.17
2022-09-09T05:43:22.627Z,19.17
2022-09-09T05:44:24.897Z,19.18
2022-09-09T05:45:27.402Z,19.20
2022-09-09T05:46:29.034Z,19.20
2022-09-09T05:47:31.592Z,19.21
2022-09-09T05:48:35.115Z,19.22
2022-09-09T05:49:37.762Z,19.23
2022-09-09T05:50:39.444Z,19.24
2022-09-09T05:51:43.693Z,19.27
2022-09-09T05:52:46.745Z,19.27
2022-09-09T05:53:50.059Z,19.27
2022-09-09T05:54:52.163Z,19.29
2022-09-09T05:56:01.464Z,19.30
2022-09-09T05:57:04.216Z,19.30
2022-09-09T05:58:05.811Z,19.30
2022-09-09T05:59:08.604Z,19.31
2022-09-09T06:00:11.695Z,19.32
2022-09-09T06:01:17.711Z,19.33
2022-09-09T06:02:19.428Z,19.33
2022-09-09T06:03:24.500Z,19.35
2022-09-09T06:04:26.058Z,19.36
2022-09-09T06:05:29.531Z,19.37
2022-09-09T06:06:32.812Z,19.40
2022-09-09T06:07:35.621Z,19.40
2022-09-09T06:08:40.421Z,19.43
2022-09-09T06:09:45.526Z,19.43
2022-09-09T06:10:47.106Z,19.46
2022-09-09T06:11:50.055Z,19.47
2022-09-09T06:12:53.812Z,19.50
2022-09-09T06:13:56.307Z,19.52
2022-09-09T06:14:57.888Z,19.54
2022-09-09T06:16:01.488Z,19.57
2022-09-09T06:17:04.269Z,19.59
2022-09-09T06:18:05.931Z,19.62
2022-09-09T06:19:13.116Z,19.63
2022-09-09T06:20:14.928Z,19.65
2022-09-09T06:21:19.078Z,19.69
2022-09-09T06:22:21.721Z,19.71
2022-09-09T06:23:23.563Z,19.72
2022-09-09T06:24:27.479Z,19.74
2022-09-09T06:25:29.469Z,19.76
2022-09-09T06:26:33.899Z,19.78
2022-09-09T06:27:35.481Z,19.79
2022-09-09T06:28:38.945Z,19.81
2022-09-09T06:29:40.515Z,19.79
2022-09-09T06:30:43.190Z,19.83
2022-09-09T06:31:45.809Z,19.86
2022-09-09T06:32:47.435Z,19.87
2022-09-09T06:33:50.956Z,19.86
2022-09-09T06:34:53.601Z,19.86
2022-09-09T06:35:55.982Z,19.87
2022-09-09T06:36:59.242Z,19.87
2022-09-09T06:38:00.937Z,19.89
2022-09-09T06:39:03.617Z,19.89
2022-09-09T06:40:08.022Z,19.91
2022-09-09T06:41:11.691Z,19.93
2022-09-09T06:42:13.347Z,19.95
2022-09-09T06:43:15.920Z,19.98
2022-09-09T06:44:18.434Z,20.01
2022-09-09T06:45:20.088Z,20.05
2022-09-09T06:46:24.627Z,20.07
2022-09-09T06:47:26.284Z,20.10
2022-09-09T06:48:29.831Z,20.13
2022-09-09T06:49:33.559Z,20.17
2022-09-09T06:50:35.803Z,20.19
2022-09-09T06:51:43.472Z,20.20
2022-09-09T06:52:48.562Z,20.20
2022-09-09T06:53:54.408Z,20.20
2022-09-09T06:54:59.293Z,20.22
2022-09-09T06:56:03.329Z,20.24
2022-09-09T06:57:27.114Z,20.23
2022-09-09T06:58:31.355Z,20.25
2022-09-09T06:59:33.965Z,20.27
2022-09-09T07:00:38.762Z,20.29
2022-09-09T07:01:42.422Z,20.32
2022-09-09T07:02:45.835Z,20.32
2022-09-09T07:03:49.578Z,20.33
2022-09-09T07:04:52.517Z,20.35
2022-09-09T07:05:57.653Z,20.37
2022-09-09T07:07:00.241Z,20.40
2022-09-09T07:08:03.088Z,20.45
2022-09-09T07:09:07.687Z,20.48
2022-09-09T07:10:09.850Z,20.48
2022-09-09T07:11:13.964Z,20.48
2022-09-09T07:12:16.495Z,20.50
2022-09-09T07:13:25.198Z,20.56
2022-09-09T07:14:28.280Z,20.57
2022-09-09T07:15:31.367Z,20.61
2022-09-09T07:16:34.628Z,20.61
2022-09-09T07:17:37.175Z,20.62
2022-09-09T07:18:39.731Z,20.60
2022-09-09T07:19:42.344Z,20.60
2022-09-09T07:20:43.879Z,20.59
2022-09-09T07:21:46.658Z,20.57
2022-09-09T07:22:48.422Z,20.53
2022-09-09T07:23:50.973Z,20.54
2022-09-09T07:24:53.497Z,20.53
2022-09-09T07:25:55.288Z,20.55
2022-09-09T07:26:59.435Z,20.57
2022-09-09T07:28:01.292Z,20.59
2022-09-09T07:29:04.431Z,20.61
2022-09-09T07:30:07.540Z,20.65
2022-09-09T07:31:17.410Z,20.68
2022-09-09T07:32:23.905Z,20.72
2022-09-09T07:33:27.305Z,20.76
2022-09-09T07:34:28.902Z,20.81
2022-09-09T07:35:31.432Z,20.85
2022-09-09T07:36:35.953Z,20.89
2022-09-09T07:37:37.719Z,20.91
2022-09-09T07:38:42.056Z,20.95
2022-09-09T07:39:44.892Z,20.99
2022-09-09T07:40:47.088Z,21.03
2022-09-09T07:41:51.872Z,21.07
2022-09-09T07:42:55.814Z,21.11
2022-09-09T07:43:57.558Z,21.13
2022-09-09T07:45:00.340Z,21.15
2022-09-09T07:46:03.356Z,21.18
2022-09-09T07:47:05.093Z,21.18
2022-09-09T07:48:08.054Z,21.19
2022-09-09T07:49:11.670Z,21.18
2022-09-09T07:50:13.303Z,21.20
2022-09-09T07:51:19.208Z,21.21
2022-09-09T07:52:22.343Z,21.21
2022-09-09T07:53:23.934Z,21.24
2022-09-09T07:54:27.023Z,21.29
2022-09-09T07:55:28.694Z,21.35
2022-09-09T07:56:33.644Z,21.41
2022-09-09T07:57:37.052Z,21.44
2022-09-09T07:58:42.025Z,21.47
2022-09-09T07:59:44.621Z,21.48
2022-09-09T08:00:46.306Z,21.46
2022-09-09T08:01:54.335Z,21.44
2022-09-09T08:02:56.059Z,21.45
2022-09-09T08:04:01.952Z,21.47
2022-09-09T08:05:03.896Z,21.49
2022-09-09T08:06:09.077Z,21.51
2022-09-09T08:07:11.735Z,21.50
2022-09-09T08:08:13.294Z,21.52
2022-09-09T08:09:16.735Z,21.52
2022-09-09T08:10:19.344Z,21.50
2022-09-09T08:11:21.881Z,21.47
2022-09-09T08:12:25.341Z,21.44
2022-09-09T08:13:28.106Z,21.46
2022-09-09T08:14:31.941Z,21.50
2022-09-09T08:15:34.884Z,21.54
2022-09-09T08:16:41.235Z,21.56
2022-09-09T08:17:44.019Z,21.56
2022-09-09T08:18:46.671Z,21.56
2022-09-09T08:19:48.249Z,21.57
2022-09-09T08:20:50.846Z,21.56
2022-09-09T08:21:53.463Z,21.59
2022-09-09T08:22:56.241Z,21.61
2022-09-09T08:24:00.253Z,21.62
2022-09-09T08:25:03.146Z,21.62
2022-09-09T08:26:07.857Z,21.62
2022-09-09T08:27:10.805Z,21.61
2022-09-09T08:28:16.834Z,21.64
2022-09-09T08:29:19.911Z,21.68
2022-09-09T08:30:22.805Z,21.71
2022-09-09T08:31:27.410Z,21.74
2022-09-09T08:32:30.265Z,21.77
2022-09-09T08:33:31.820Z,21.77
2022-09-09T08:34:34.934Z,21.76
2022-09-09T08:35:37.046Z,21.75
2022-09-09T08:36:43.194Z,21.77
2022-09-09T08:37:44.956Z,21.80
2022-09-09T08:38:49.957Z,21.80
2022-09-09T08:39:53.954Z,21.80
2022-09-09T08:41:05.669Z,21.80
2022-09-09T08:42:29.926Z,21.77
2022-09-09T08:43:33.424Z,21.77
2022-09-09T08:44:49.350Z,21.80
2022-09-09T08:46:02.802Z,21.82
2022-09-09T08:47:14.542Z,21.85
2022-09-09T08:48:35.963Z,21.90
2022-09-09T08:50:07.492Z,21.95
2022-09-09T08:51:11.752Z,22.02
2022-09-09T08:52:19.651Z,22.06
2022-09-09T08:53:25.996Z,22.09
2022-09-09T08:54:51.057Z,22.13
2022-09-09T08:55:56.688Z,22.14
2022-09-09T08:56:59.212Z,22.14
2022-09-09T08:58:07.497Z,22.14
2022-09-09T08:59:15.764Z,22.12
2022-09-09T09:00:17.311Z,22.13
2022-09-09T09:01:37.368Z,22.16
2022-09-09T09:02:50.162Z,22.19
2022-09-09T09:04:00.864Z,22.19
2022-09-09T09:05:19.419Z,22.21
2022-09-09T09:06:37.220Z,22.22
2022-09-09T09:07:52.474Z,22.25
2022-09-09T09:09:02.499Z,22.22
2022-09-09T09:10:39.936Z,22.20
2022-09-09T09:11:40.052Z,22.18
2022-09-09T09:12:44.031Z,22.16
2022-09-09T09:13:53.138Z,22.15
2022-09-09T09:14:56.439Z,22.14
2022-09-09T09:16:12.214Z,22.11
2022-09-09T09:17:19.997Z,22.07
2022-09-09T09:18:22.447Z,22.05
2022-09-09T09:19:27.135Z,22.04
2022-09-09T09:20:46.698Z,22.05
2022-09-09T09:21:55.216Z,22.04
2022-09-09T09:23:02.459Z,22.03
2022-09-09T09:24:09.860Z,22.00
2022-09-09T09:25:17.935Z,22.00
2022-09-09T09:26:23.107Z,21.98
2022-09-09T09:27:33.029Z,21.98
2022-09-09T09:28:37.166Z,21.96
2022-09-09T09:30:03.497Z,21.97
2022-09-09T09:31:07.671Z,21.97
2022-09-09T09:32:15.218Z,22.00
2022-09-09T09:33:22.550Z,22.05
2022-09-09T09:34:26.009Z,22.12
2022-09-09T09:35:27.800Z,22.17
2022-09-09T09:36:37.202Z,22.25
2022-09-09T09:40:28.828Z,22.41
2022-09-09T09:41:32.339Z,22.48
2022-09-09T09:42:34.839Z,22.52
2022-09-09T09:43:38.190Z,22.58
2022-09-09T09:44:40.881Z,22.62
2022-09-09T09:45:55.288Z,22.64
2022-09-09T09:47:09.517Z,22.63
2022-09-09T09:48:14.419Z,22.60
2022-09-09T09:49:18.248Z,22.56
2022-09-09T09:50:22.129Z,22.52
2022-09-09T09:51:25.363Z,22.47
2022-09-09T09:52:30.228Z,22.44
2022-09-09T09:53:34.324Z,22.42
2022-09-09T09:54:41.255Z,22.42
2022-09-09T09:55:51.267Z,22.42
2022-09-09T09:56:53.933Z,22.44
2022-09-09T09:58:02.537Z,22.47
2022-09-09T09:59:13.142Z,22.52
2022-09-09T10:00:25.914Z,22.56
2022-09-09T10:01:29.050Z,22.63
2022-09-09T10:02:40.850Z,22.67
2022-09-09T10:03:51.877Z,22.74
2022-09-09T10:05:05.496Z,22.78
2022-09-09T10:06:07.497Z,22.82
2022-09-09T10:07:12.506Z,22.86
2022-09-09T10:08:18.531Z,22.89
2022-09-09T10:09:28.285Z,22.93
2022-09-09T10:10:46.192Z,22.98
2022-09-09T10:11:59.763Z,23.02
2022-09-09T10:13:12.847Z,23.05
2022-09-09T10:14:22.662Z,23.07
2022-09-09T10:15:44.669Z,23.07
2022-09-09T10:17:00.963Z,23.08
2022-09-09T10:18:22.178Z,23.08
2022-09-09T10:19:32.827Z,23.10
2022-09-09T10:20:46.623Z,23.11
2022-09-09T10:22:08.066Z,23.14
2022-09-09T10:23:27.133Z,23.18
2022-09-09T10:25:02.468Z,23.21
2022-09-09T10:26:18.478Z,23.24
2022-09-09T10:27:29.742Z,23.26
2022-09-09T10:28:50.252Z,23.29
2022-09-09T10:30:09.651Z,23.27
2022-09-09T10:31:23.681Z,23.27
2022-09-09T10:32:39.432Z,23.24
2022-09-09T10:33:51.858Z,23.21
2022-09-09T10:34:58.240Z,23.18
2022-09-09T10:36:10.755Z,23.13
2022-09-09T10:37:24.394Z,23.08
2022-09-09T10:38:36.762Z,23.03
2022-09-09T10:39:43.042Z,23.00
2022-09-09T10:41:13.306Z,22.98
2022-09-09T10:42:16.260Z,23.02
2022-09-09T10:43:31.711Z,23.08
2022-09-09T10:44:49.494Z,23.14
2022-09-09T10:46:04.817Z,23.19
2022-09-09T10:47:27.889Z,23.23
2022-09-09T10:48:38.647Z,23.26
2022-09-09T10:50:04.477Z,23.27
2022-09-09T10:51:30.864Z,23.29
2022-09-09T10:52:41.953Z,23.33
2022-09-09T10:53:55.224Z,23.38
2022-09-09T10:55:03.527Z,23.43
2022-09-09T10:56:11.335Z,23.46
2022-09-09T10:57:18.086Z,23.49
2022-09-09T10:58:27.421Z,23.49
2022-09-09T10:59:32.464Z,23.49
2022-09-09T11:00:42.396Z,23.47
2022-09-09T11:01:49.455Z,23.43
2022-09-09T11:02:57.714Z,23.42
2022-09-09T11:04:06.996Z,23.39
2022-09-09T11:05:20.988Z,23.38
2022-09-09T11:06:29.900Z,23.38
2022-09-09T11:07:41.662Z,23.40
2022-09-09T11:08:44.609Z,23.44
2022-09-09T11:12:03.551Z,23.45
2022-09-09T11:13:17.040Z,23.43
2022-09-09T11:14:28.628Z,23.41
2022-09-09T11:15:39.882Z,23.36
2022-09-09T11:16:49.056Z,23.35
2022-09-09T11:17:55.566Z,23.35
2022-09-09T11:19:03.751Z,23.39
2022-09-09T11:20:12.514Z,23.42
2022-09-09T11:21:24.993Z,23.41
2022-09-09T11:22:32.783Z,23.40
2022-09-09T11:23:42.026Z,23.36
2022-09-09T11:24:51.471Z,23.36
2022-09-09T11:25:57.988Z,23.39
2022-09-09T11:27:04.889Z,23.41
2022-09-09T11:28:23.430Z,23.43
2022-09-09T11:30:01.741Z,23.43
2022-09-09T11:31:23.522Z,23.41
2022-09-09T11:32:46.515Z,23.37
2022-09-09T11:33:59.863Z,23.36
2022-09-09T11:35:14.109Z,23.36
2022-09-09T11:36:46.381Z,23.41
2022-09-09T11:38:03.847Z,23.45
2022-09-09T11:39:25.298Z,23.48
2022-09-09T11:40:31.345Z,23.49
2022-09-09T11:41:38.110Z,23.48
2022-09-09T11:42:40.665Z,23.47
2022-09-09T11:43:45.945Z,23.46
2022-09-09T11:44:47.800Z,23.43
2022-09-09T11:45:58.788Z,23.44
2022-09-09T11:47:02.701Z,23.44
2022-09-09T11:48:07.725Z,23.47
2022-09-09T11:50:35.320Z,23.49
2022-09-09T11:51:37.888Z,23.52
2022-09-09T11:52:43.180Z,23.52
2022-09-09T11:53:55.411Z,23.54
2022-09-09T11:54:57.408Z,23.55
2022-09-09T11:56:06.714Z,23.54
2022-09-09T11:57:25.842Z,23.51
2022-09-09T11:58:33.570Z,23.51
2022-09-09T11:59:37.624Z,23.52
2022-09-09T12:00:42.837Z,23.54
2022-09-09T12:01:47.768Z,23.57
2022-09-09T12:02:51.123Z,23.60
2022-09-09T12:04:04.231Z,23.64
2022-09-09T12:05:10.528Z,23.67
2022-09-09T12:06:19.308Z,23.69
2022-09-09T12:07:33.596Z,23.68
2022-09-09T12:08:37.868Z,23.68
2022-09-09T12:09:52.614Z,23.70
2022-09-09T12:10:55.888Z,23.73
2022-09-09T12:12:09.811Z,23.74
2022-09-09T12:13:20.418Z,23.74
2022-09-09T12:14:24.570Z,23.70
2022-09-09T12:15:30.721Z,23.68
2022-09-09T12:16:35.443Z,23.65
2022-09-09T12:17:44.100Z,23.65
2022-09-09T12:18:46.770Z,23.67
2022-09-09T12:19:50.024Z,23.68
2022-09-09T12:21:02.814Z,23.70
2022-09-09T12:22:13.878Z,23.74
2022-09-09T12:23:33.055Z,23.74
2022-09-09T12:24:45.553Z,23.74
2022-09-09T12:26:23.700Z,23.72
2022-09-09T12:27:32.482Z,23.70
2022-09-09T12:28:51.688Z,23.70
2022-09-09T12:30:02.940Z,23.70
2022-09-09T12:31:11.049Z,23.71
2022-09-09T12:32:18.658Z,23.69
2022-09-09T12:33:24.523Z,23.65
2022-09-09T12:34:36.879Z,23.62
2022-09-09T12:35:40.889Z,23.58
2022-09-09T12:36:48.656Z,23.54
2022-09-09T12:37:57.930Z,23.48
2022-09-09T12:39:14.232Z,23.46
2022-09-09T12:40:24.018Z,23.45
2022-09-09T12:41:29.283Z,23.47
2022-09-09T12:42:37.886Z,23.50
2022-09-09T12:43:43.131Z,23.52
2022-09-09T12:44:55.749Z,23.56
2022-09-09T12:46:01.813Z,23.58
2022-09-09T12:47:04.730Z,23.57
2022-09-09T12:48:10.251Z,23.53
2022-09-09T12:49:29.660Z,23.50
2022-09-09T12:50:34.880Z,23.45
2022-09-09T12:51:36.629Z,23.39
2022-09-09T12:52:39.972Z,23.36
2022-09-09T12:53:41.698Z,23.38
2022-09-09T12:54:47.576Z,23.44
2022-09-09T12:55:52.822Z,23.54
2022-09-09T12:56:55.568Z,23.63
2022-09-09T12:58:00.324Z,23.68
2022-09-09T12:59:03.028Z,23.73
2022-09-09T13:00:15.272Z,23.70
2022-09-09T13:01:24.121Z,23.65
2022-09-09T13:02:28.842Z,23.62
2022-09-09T13:03:31.451Z,23.63
2022-09-09T13:04:35.374Z,23.62
2022-09-09T13:05:40.493Z,23.65
2022-09-09T13:06:42.038Z,23.65
2022-09-09T13:07:45.075Z,23.65
2022-09-09T13:08:46.731Z,23.64
2022-09-09T13:09:51.250Z,23.64
2022-09-09T13:11:02.955Z,23.63
2022-09-09T13:12:08.225Z,23.63
2022-09-09T13:13:17.068Z,23.59
2022-09-09T13:14:22.078Z,23.51
2022-09-09T13:15:27.466Z,23.43
2022-09-09T13:16:32.571Z,23.40
2022-09-09T13:17:37.534Z,23.39
2022-09-09T13:18:43.077Z,23.38
2022-09-09T13:19:46.376Z,23.40
2022-09-09T13:20:50.575Z,23.42
2022-09-09T13:21:53.678Z,23.44
2022-09-09T13:22:57.308Z,23.46
2022-09-09T13:24:04.093Z,23.47
2022-09-09T13:25:19.822Z,23.49
2022-09-09T13:26:24.666Z,23.54
2022-09-09T13:27:30.560Z,23.58
2022-09-09T13:28:35.979Z,23.58
2022-09-09T13:29:38.336Z,23.59
2022-09-09T13:30:43.790Z,23.65
2022-09-09T13:31:46.129Z,23.69
2022-09-09T13:32:48.810Z,23.70
2022-09-09T13:33:50.473Z,23.70
2022-09-09T13:34:54.336Z,23.72
2022-09-09T13:35:59.832Z,23.73
2022-09-09T13:37:03.686Z,23.73
2022-09-09T13:38:11.391Z,23.71
2022-09-09T13:39:19.769Z,23.73
2022-09-09T13:40:23.060Z,23.74
2022-09-09T13:41:27.548Z,23.78
2022-09-09T13:42:32.331Z,23.81
2022-09-09T13:43:39.823Z,23.81
2022-09-09T13:44:42.557Z,23.80
2022-09-09T13:45:55.268Z,23.75
2022-09-09T13:47:10.167Z,23.70
2022-09-09T13:48:14.480Z,23.64
2022-09-09T13:49:24.052Z,23.59
2022-09-09T13:50:27.841Z,23.54
2022-09-09T13:51:35.841Z,23.49
2022-09-09T13:52:37.430Z,23.43
2022-09-09T13:53:40.058Z,23.39
2022-09-09T13:54:42.932Z,23.34
2022-09-09T13:55:49.268Z,23.29
2022-09-09T13:56:55.773Z,23.25
2022-09-09T13:57:58.693Z,23.23
2022-09-09T13:59:02.758Z,23.22
2022-09-09T14:00:06.858Z,23.22
2022-09-09T14:01:12.955Z,23.23
2022-09-09T14:02:14.777Z,23.24
2022-09-09T14:03:17.742Z,23.26
2022-09-09T14:04:22.055Z,23.29
2022-09-09T14:05:24.232Z,23.32
2022-09-09T14:06:27.158Z,23.36
2022-09-09T14:07:29.364Z,23.41
2022-09-09T14:08:37.957Z,23.43
2022-09-09T14:09:40.134Z,23.42
2022-09-09T14:10:42.734Z,23.41
2022-09-09T14:11:46.337Z,23.39
2022-09-09T14:12:49.039Z,23.36
2022-09-09T14:13:50.895Z,23.35
2022-09-09T14:14:54.817Z,23.33
2022-09-09T14:15:56.994Z,23.30
2022-09-09T14:16:59.561Z,23.28
2022-09-09T14:18:01.131Z,23.25
2022-09-09T14:19:03.970Z,23.21
2022-09-09T14:20:09.310Z,23.19
2022-09-09T14:21:12.566Z,23.19